X  Chiuso Dati meteorologici dell'aviazione (METAR)     LIMC Malpensa International Airport
Temperatura
2°C Temperatura
-2°C Punto di rugiada
75% Umidità



Vento
10 KM/O
6 MPH
3 M/S
5 KTS



120°
ESE
Condizioni attuali

Chiaro Chiaro
Pressione 1011.92 (hPa) - 29.88 (inHg)
Visibilità 6.2 (miglio) - 10 (km)
Aeroporto
Codice-Aeroporto LIMC

Posizione: Malpensa International Airport
Distanza: 50 (km)

Metar:
LIMC 071850Z 12005KT 090V180 CAVOK 02/M02 Q1012 NOSIG

Ore: 07-12-2021 19:50 CET